sensor_id;sensor_type;location;lat;lon;timestamp;P1;durP1;ratioP1;P2;durP2;ratioP2
51664;SDS011;37751;52.408;12.536;2023-11-21T00:01:05;35.92;;;15.27;;
51664;SDS011;37751;52.408;12.536;2023-11-21T00:03:37;43.38;;;15.52;;
51664;SDS011;37751;52.408;12.536;2023-11-21T00:06:11;35.30;;;14.33;;
51664;SDS011;37751;52.408;12.536;2023-11-21T00:08:53;38.05;;;13.70;;
51664;SDS011;37751;52.408;12.536;2023-11-21T00:11:28;35.33;;;13.67;;
51664;SDS011;37751;52.408;12.536;2023-11-21T00:14:03;35.10;;;11.55;;
51664;SDS011;37751;52.408;12.536;2023-11-21T00:16:36;34.87;;;11.00;;
51664;SDS011;37751;52.408;12.536;2023-11-21T00:19:07;34.90;;;11.83;;
51664;SDS011;37751;52.408;12.536;2023-11-21T00:21:39;40.33;;;12.63;;
51664;SDS011;37751;52.408;12.536;2023-11-21T00:24:14;34.17;;;11.70;;
51664;SDS011;37751;52.408;12.536;2023-11-21T00:26:59;37.65;;;11.60;;
51664;SDS011;37751;52.408;12.536;2023-11-21T00:29:54;28.03;;;10.00;;
51664;SDS011;37751;52.408;12.536;2023-11-21T00:32:31;33.70;;;10.05;;
51664;SDS011;37751;52.408;12.536;2023-11-21T00:35:05;36.60;;;10.17;;
51664;SDS011;37751;52.408;12.536;2023-11-21T00:37:41;25.00;;;9.63;;
51664;SDS011;37751;52.408;12.536;2023-11-21T00:40:35;25.65;;;10.63;;
51664;SDS011;37751;52.408;12.536;2023-11-21T00:43:12;23.03;;;9.07;;
51664;SDS011;37751;52.408;12.536;2023-11-21T00:45:52;26.00;;;9.40;;
51664;SDS011;37751;52.408;12.536;2023-11-21T00:48:24;26.17;;;9.88;;
51664;SDS011;37751;52.408;12.536;2023-11-21T00:50:59;29.57;;;8.93;;
51664;SDS011;37751;52.408;12.536;2023-11-21T00:53:30;21.17;;;8.73;;
51664;SDS011;37751;52.408;12.536;2023-11-21T00:56:05;27.67;;;8.10;;
51664;SDS011;37751;52.408;12.536;2023-11-21T00:59:07;22.33;;;9.00;;
51664;SDS011;37751;52.408;12.536;2023-11-21T01:01:43;32.07;;;9.20;;
51664;SDS011;37751;52.408;12.536;2023-11-21T01:04:15;19.37;;;6.90;;
51664;SDS011;37751;52.408;12.536;2023-11-21T01:07:10;19.83;;;7.63;;
51664;SDS011;37751;52.408;12.536;2023-11-21T01:10:12;21.08;;;7.72;;
51664;SDS011;37751;52.408;12.536;2023-11-21T01:13:08;22.53;;;7.70;;
51664;SDS011;37751;52.408;12.536;2023-11-21T01:15:53;23.80;;;8.40;;
51664;SDS011;37751;52.408;12.536;2023-11-21T01:18:28;23.42;;;8.35;;
51664;SDS011;37751;52.408;12.536;2023-11-21T01:21:22;24.80;;;7.93;;
51664;SDS011;37751;52.408;12.536;2023-11-21T01:23:56;16.88;;;7.50;;
51664;SDS011;37751;52.408;12.536;2023-11-21T01:26:31;14.90;;;6.50;;
51664;SDS011;37751;52.408;12.536;2023-11-21T01:29:03;10.37;;;5.40;;
51664;SDS011;37751;52.408;12.536;2023-11-21T01:32:09;15.53;;;7.87;;
51664;SDS011;37751;52.408;12.536;2023-11-21T01:34:43;14.87;;;9.90;;
51664;SDS011;37751;52.408;12.536;2023-11-21T01:37:18;18.67;;;12.23;;
51664;SDS011;37751;52.408;12.536;2023-11-21T01:40:19;18.83;;;12.40;;
51664;SDS011;37751;52.408;12.536;2023-11-21T01:42:54;22.37;;;14.20;;
51664;SDS011;37751;52.408;12.536;2023-11-21T01:45:26;21.97;;;14.03;;
51664;SDS011;37751;52.408;12.536;2023-11-21T01:47:59;19.93;;;12.57;;
51664;SDS011;37751;52.408;12.536;2023-11-21T01:50:46;21.47;;;11.60;;
51664;SDS011;37751;52.408;12.536;2023-11-21T01:53:30;16.57;;;11.67;;
51664;SDS011;37751;52.408;12.536;2023-11-21T01:56:04;17.40;;;10.37;;
51664;SDS011;37751;52.408;12.536;2023-11-21T01:58:51;13.77;;;9.93;;
51664;SDS011;37751;52.408;12.536;2023-11-21T02:01:47;11.13;;;8.17;;
51664;SDS011;37751;52.408;12.536;2023-11-21T02:04:18;12.63;;;8.70;;
51664;SDS011;37751;52.408;12.536;2023-11-21T02:06:53;11.80;;;7.40;;
51664;SDS011;37751;52.408;12.536;2023-11-21T02:09:25;13.07;;;8.27;;
51664;SDS011;37751;52.408;12.536;2023-11-21T02:12:06;10.37;;;8.13;;
51664;SDS011;37751;52.408;12.536;2023-11-21T02:14:41;11.13;;;8.33;;
51664;SDS011;37751;52.408;12.536;2023-11-21T02:17:13;17.47;;;9.97;;
51664;SDS011;37751;52.408;12.536;2023-11-21T02:19:45;16.13;;;9.50;;
51664;SDS011;37751;52.408;12.536;2023-11-21T02:22:21;16.17;;;10.63;;
51664;SDS011;37751;52.408;12.536;2023-11-21T02:24:59;17.10;;;10.53;;
51664;SDS011;37751;52.408;12.536;2023-11-21T02:27:30;17.20;;;11.57;;
51664;SDS011;37751;52.408;12.536;2023-11-21T02:30:02;16.63;;;11.20;;
51664;SDS011;37751;52.408;12.536;2023-11-21T02:32:43;21.50;;;12.70;;
51664;SDS011;37751;52.408;12.536;2023-11-21T02:35:16;20.33;;;12.60;;
51664;SDS011;37751;52.408;12.536;2023-11-21T02:37:48;23.30;;;13.73;;
51664;SDS011;37751;52.408;12.536;2023-11-21T02:40:24;21.80;;;14.23;;
51664;SDS011;37751;52.408;12.536;2023-11-21T02:42:56;25.90;;;16.37;;
51664;SDS011;37751;52.408;12.536;2023-11-21T02:45:27;28.93;;;16.27;;
51664;SDS011;37751;52.408;12.536;2023-11-21T02:47:59;29.30;;;16.90;;
51664;SDS011;37751;52.408;12.536;2023-11-21T02:50:32;28.30;;;16.73;;
51664;SDS011;37751;52.408;12.536;2023-11-21T02:53:23;28.03;;;15.90;;
51664;SDS011;37751;52.408;12.536;2023-11-21T02:56:01;27.20;;;17.57;;
51664;SDS011;37751;52.408;12.536;2023-11-21T02:58:36;25.80;;;14.67;;
51664;SDS011;37751;52.408;12.536;2023-11-21T03:01:39;26.47;;;16.10;;
51664;SDS011;37751;52.408;12.536;2023-11-21T03:04:11;29.23;;;15.37;;
51664;SDS011;37751;52.408;12.536;2023-11-21T03:06:51;26.53;;;15.93;;
51664;SDS011;37751;52.408;12.536;2023-11-21T03:09:26;25.23;;;15.17;;
51664;SDS011;37751;52.408;12.536;2023-11-21T03:12:18;22.80;;;14.23;;
51664;SDS011;37751;52.408;12.536;2023-11-21T03:14:50;24.03;;;14.03;;
51664;SDS011;37751;52.408;12.536;2023-11-21T03:17:22;22.67;;;14.50;;
51664;SDS011;37751;52.408;12.536;2023-11-21T03:19:53;19.40;;;12.83;;
51664;SDS011;37751;52.408;12.536;2023-11-21T03:22:25;22.43;;;13.70;;
51664;SDS011;37751;52.408;12.536;2023-11-21T03:25:17;22.00;;;14.17;;
51664;SDS011;37751;52.408;12.536;2023-11-21T03:27:54;19.73;;;13.30;;
51664;SDS011;37751;52.408;12.536;2023-11-21T03:30:26;19.97;;;12.80;;
51664;SDS011;37751;52.408;12.536;2023-11-21T03:33:18;18.77;;;12.50;;
51664;SDS011;37751;52.408;12.536;2023-11-21T03:35:51;18.00;;;13.07;;
51664;SDS011;37751;52.408;12.536;2023-11-21T03:38:36;19.67;;;11.70;;
51664;SDS011;37751;52.408;12.536;2023-11-21T03:41:11;23.40;;;14.40;;
51664;SDS011;37751;52.408;12.536;2023-11-21T03:43:45;20.57;;;13.27;;
51664;SDS011;37751;52.408;12.536;2023-11-21T03:46:20;19.53;;;13.40;;
51664;SDS011;37751;52.408;12.536;2023-11-21T03:48:52;20.63;;;12.87;;
51664;SDS011;37751;52.408;12.536;2023-11-21T03:51:23;19.80;;;13.23;;
51664;SDS011;37751;52.408;12.536;2023-11-21T03:53:57;24.73;;;14.17;;
51664;SDS011;37751;52.408;12.536;2023-11-21T03:56:32;19.40;;;13.17;;
51664;SDS011;37751;52.408;12.536;2023-11-21T03:59:09;17.93;;;11.83;;
51664;SDS011;37751;52.408;12.536;2023-11-21T04:01:57;19.63;;;12.80;;
51664;SDS011;37751;52.408;12.536;2023-11-21T04:05:10;20.37;;;12.00;;
51664;SDS011;37751;52.408;12.536;2023-11-21T04:07:41;17.53;;;13.10;;
51664;SDS011;37751;52.408;12.536;2023-11-21T04:10:53;19.33;;;12.17;;
51664;SDS011;37751;52.408;12.536;2023-11-21T04:13:29;18.03;;;12.50;;
51664;SDS011;37751;52.408;12.536;2023-11-21T04:16:03;17.87;;;12.93;;
51664;SDS011;37751;52.408;12.536;2023-11-21T04:18:50;19.80;;;12.23;;
51664;SDS011;37751;52.408;12.536;2023-11-21T04:21:25;17.37;;;12.67;;
51664;SDS011;37751;52.408;12.536;2023-11-21T04:23:57;20.73;;;12.63;;
51664;SDS011;37751;52.408;12.536;2023-11-21T04:26:41;23.77;;;13.20;;
51664;SDS011;37751;52.408;12.536;2023-11-21T04:29:17;21.83;;;13.30;;
51664;SDS011;37751;52.408;12.536;2023-11-21T04:31:51;19.30;;;12.93;;
51664;SDS011;37751;52.408;12.536;2023-11-21T04:34:23;19.97;;;12.70;;
51664;SDS011;37751;52.408;12.536;2023-11-21T04:36:57;25.63;;;14.23;;
51664;SDS011;37751;52.408;12.536;2023-11-21T04:39:49;21.33;;;14.50;;
51664;SDS011;37751;52.408;12.536;2023-11-21T04:42:33;28.00;;;14.77;;
51664;SDS011;37751;52.408;12.536;2023-11-21T04:45:08;23.53;;;14.43;;
51664;SDS011;37751;52.408;12.536;2023-11-21T04:48:23;24.83;;;14.60;;
51664;SDS011;37751;52.408;12.536;2023-11-21T04:51:00;25.97;;;14.10;;
51664;SDS011;37751;52.408;12.536;2023-11-21T04:53:32;21.97;;;14.10;;
51664;SDS011;37751;52.408;12.536;2023-11-21T04:56:04;24.57;;;14.13;;
51664;SDS011;37751;52.408;12.536;2023-11-21T04:58:57;20.37;;;14.03;;
51664;SDS011;37751;52.408;12.536;2023-11-21T05:01:31;19.60;;;13.63;;
51664;SDS011;37751;52.408;12.536;2023-11-21T05:04:17;21.47;;;13.73;;
51664;SDS011;37751;52.408;12.536;2023-11-21T05:06:50;22.47;;;14.30;;
51664;SDS011;37751;52.408;12.536;2023-11-21T05:09:24;25.47;;;14.23;;
51664;SDS011;37751;52.408;12.536;2023-11-21T05:11:59;22.30;;;14.27;;
51664;SDS011;37751;52.408;12.536;2023-11-21T05:14:33;23.40;;;15.20;;
51664;SDS011;37751;52.408;12.536;2023-11-21T05:17:28;22.83;;;14.63;;
51664;SDS011;37751;52.408;12.536;2023-11-21T05:20:03;19.50;;;14.43;;
51664;SDS011;37751;52.408;12.536;2023-11-21T05:22:39;20.90;;;14.20;;
51664;SDS011;37751;52.408;12.536;2023-11-21T05:25:11;24.37;;;13.53;;
51664;SDS011;37751;52.408;12.536;2023-11-21T05:27:47;19.67;;;13.47;;
51664;SDS011;37751;52.408;12.536;2023-11-21T05:30:39;25.10;;;15.20;;
51664;SDS011;37751;52.408;12.536;2023-11-21T05:33:11;24.03;;;15.30;;
51664;SDS011;37751;52.408;12.536;2023-11-21T05:35:46;18.93;;;12.93;;
51664;SDS011;37751;52.408;12.536;2023-11-21T05:38:41;21.77;;;12.93;;
51664;SDS011;37751;52.408;12.536;2023-11-21T05:41:13;20.60;;;12.80;;
51664;SDS011;37751;52.408;12.536;2023-11-21T05:43:59;21.40;;;12.93;;
51664;SDS011;37751;52.408;12.536;2023-11-21T05:47:00;19.90;;;12.93;;
51664;SDS011;37751;52.408;12.536;2023-11-21T05:49:56;21.97;;;12.03;;
51664;SDS011;37751;52.408;12.536;2023-11-21T05:52:34;23.07;;;13.27;;
51664;SDS011;37751;52.408;12.536;2023-11-21T05:55:07;24.40;;;13.93;;
51664;SDS011;37751;52.408;12.536;2023-11-21T05:57:41;21.37;;;11.90;;
51664;SDS011;37751;52.408;12.536;2023-11-21T06:00:16;18.17;;;12.97;;
51664;SDS011;37751;52.408;12.536;2023-11-21T06:02:52;23.73;;;12.97;;
51664;SDS011;37751;52.408;12.536;2023-11-21T06:05:27;19.43;;;12.83;;
51664;SDS011;37751;52.408;12.536;2023-11-21T06:08:02;18.47;;;12.77;;
51664;SDS011;37751;52.408;12.536;2023-11-21T06:10:38;24.03;;;13.30;;
51664;SDS011;37751;52.408;12.536;2023-11-21T06:13:10;23.77;;;13.07;;
51664;SDS011;37751;52.408;12.536;2023-11-21T06:15:44;22.73;;;14.17;;
51664;SDS011;37751;52.408;12.536;2023-11-21T06:18:16;21.30;;;13.57;;
51664;SDS011;37751;52.408;12.536;2023-11-21T06:20:48;21.43;;;12.77;;
51664;SDS011;37751;52.408;12.536;2023-11-21T06:23:26;22.73;;;13.37;;
51664;SDS011;37751;52.408;12.536;2023-11-21T06:26:04;22.93;;;14.40;;
51664;SDS011;37751;52.408;12.536;2023-11-21T06:28:39;21.93;;;13.50;;
51664;SDS011;37751;52.408;12.536;2023-11-21T06:31:16;20.00;;;13.70;;
51664;SDS011;37751;52.408;12.536;2023-11-21T06:33:52;22.63;;;13.90;;
51664;SDS011;37751;52.408;12.536;2023-11-21T06:36:25;27.07;;;14.37;;
51664;SDS011;37751;52.408;12.536;2023-11-21T06:39:00;22.13;;;13.67;;
51664;SDS011;37751;52.408;12.536;2023-11-21T06:41:37;19.00;;;12.83;;
51664;SDS011;37751;52.408;12.536;2023-11-21T06:44:09;26.03;;;14.17;;
51664;SDS011;37751;52.408;12.536;2023-11-21T06:46:40;25.90;;;14.67;;
51664;SDS011;37751;52.408;12.536;2023-11-21T06:49:14;20.90;;;13.80;;
51664;SDS011;37751;52.408;12.536;2023-11-21T06:51:48;24.73;;;14.83;;
51664;SDS011;37751;52.408;12.536;2023-11-21T06:54:27;22.77;;;14.00;;
51664;SDS011;37751;52.408;12.536;2023-11-21T06:56:59;22.47;;;13.90;;
51664;SDS011;37751;52.408;12.536;2023-11-21T06:59:31;22.60;;;14.57;;
51664;SDS011;37751;52.408;12.536;2023-11-21T07:02:03;23.90;;;14.17;;
51664;SDS011;37751;52.408;12.536;2023-11-21T07:04:35;33.33;;;13.40;;
51664;SDS011;37751;52.408;12.536;2023-11-21T07:07:30;20.07;;;13.27;;
51664;SDS011;37751;52.408;12.536;2023-11-21T07:10:26;22.00;;;14.30;;
51664;SDS011;37751;52.408;12.536;2023-11-21T07:12:57;22.47;;;13.60;;
51664;SDS011;37751;52.408;12.536;2023-11-21T07:15:52;25.33;;;14.23;;
51664;SDS011;37751;52.408;12.536;2023-11-21T07:18:23;20.30;;;13.93;;
51664;SDS011;37751;52.408;12.536;2023-11-21T07:20:55;23.53;;;12.70;;
51664;SDS011;37751;52.408;12.536;2023-11-21T07:23:56;18.97;;;12.57;;
51664;SDS011;37751;52.408;12.536;2023-11-21T07:26:31;21.33;;;13.33;;
51664;SDS011;37751;52.408;12.536;2023-11-21T07:29:06;22.03;;;13.90;;
51664;SDS011;37751;52.408;12.536;2023-11-21T07:31:43;26.73;;;13.57;;
51664;SDS011;37751;52.408;12.536;2023-11-21T07:34:35;20.93;;;12.80;;
51664;SDS011;37751;52.408;12.536;2023-11-21T07:37:09;20.27;;;13.17;;
51664;SDS011;37751;52.408;12.536;2023-11-21T07:39:41;21.73;;;13.00;;
51664;SDS011;37751;52.408;12.536;2023-11-21T07:42:19;18.90;;;12.30;;
51664;SDS011;37751;52.408;12.536;2023-11-21T07:45:15;21.83;;;11.90;;
51664;SDS011;37751;52.408;12.536;2023-11-21T07:47:47;17.33;;;11.90;;
51664;SDS011;37751;52.408;12.536;2023-11-21T07:50:24;16.27;;;11.63;;
51664;SDS011;37751;52.408;12.536;2023-11-21T07:52:56;19.37;;;12.00;;
51664;SDS011;37751;52.408;12.536;2023-11-21T07:55:36;23.53;;;12.23;;
51664;SDS011;37751;52.408;12.536;2023-11-21T07:58:12;19.07;;;11.23;;
51664;SDS011;37751;52.408;12.536;2023-11-21T08:01:04;17.87;;;11.67;;
51664;SDS011;37751;52.408;12.536;2023-11-21T08:03:38;20.40;;;13.27;;
51664;SDS011;37751;52.408;12.536;2023-11-21T08:06:11;20.67;;;12.73;;
51664;SDS011;37751;52.408;12.536;2023-11-21T08:09:03;30.13;;;13.50;;
51664;SDS011;37751;52.408;12.536;2023-11-21T08:11:41;19.77;;;12.83;;
51664;SDS011;37751;52.408;12.536;2023-11-21T08:14:26;17.80;;;11.30;;
51664;SDS011;37751;52.408;12.536;2023-11-21T08:17:01;18.20;;;10.80;;
51664;SDS011;37751;52.408;12.536;2023-11-21T08:19:54;17.17;;;11.73;;
51664;SDS011;37751;52.408;12.536;2023-11-21T08:22:36;17.90;;;10.57;;
51664;SDS011;37751;52.408;12.536;2023-11-21T08:25:28;22.30;;;12.90;;
51664;SDS011;37751;52.408;12.536;2023-11-21T08:28:06;16.37;;;10.37;;
51664;SDS011;37751;52.408;12.536;2023-11-21T08:30:47;17.10;;;11.70;;
51664;SDS011;37751;52.408;12.536;2023-11-21T08:33:19;15.57;;;10.20;;
51664;SDS011;37751;52.408;12.536;2023-11-21T08:35:53;19.70;;;12.10;;
51664;SDS011;37751;52.408;12.536;2023-11-21T08:38:30;18.47;;;11.13;;
51664;SDS011;37751;52.408;12.536;2023-11-21T08:41:25;17.60;;;9.80;;
51664;SDS011;37751;52.408;12.536;2023-11-21T08:44:02;15.80;;;10.33;;
51664;SDS011;37751;52.408;12.536;2023-11-21T08:46:38;15.67;;;10.60;;
51664;SDS011;37751;52.408;12.536;2023-11-21T08:49:11;14.40;;;10.07;;
51664;SDS011;37751;52.408;12.536;2023-11-21T08:51:44;14.73;;;10.17;;
51664;SDS011;37751;52.408;12.536;2023-11-21T08:54:39;13.97;;;8.63;;
51664;SDS011;37751;52.408;12.536;2023-11-21T08:57:11;12.00;;;8.77;;
51664;SDS011;37751;52.408;12.536;2023-11-21T08:59:43;14.60;;;8.97;;
51664;SDS011;37751;52.408;12.536;2023-11-21T09:02:40;13.83;;;8.50;;
51664;SDS011;37751;52.408;12.536;2023-11-21T09:05:15;11.13;;;7.70;;
51664;SDS011;37751;52.408;12.536;2023-11-21T09:08:04;11.37;;;7.10;;
51664;SDS011;37751;52.408;12.536;2023-11-21T09:10:57;11.77;;;6.83;;
51664;SDS011;37751;52.408;12.536;2023-11-21T09:13:33;11.80;;;6.63;;
51664;SDS011;37751;52.408;12.536;2023-11-21T09:16:08;9.00;;;5.70;;
51664;SDS011;37751;52.408;12.536;2023-11-21T09:18:45;10.53;;;5.57;;
51664;SDS011;37751;52.408;12.536;2023-11-21T09:21:17;14.03;;;7.10;;
51664;SDS011;37751;52.408;12.536;2023-11-21T09:23:52;12.03;;;6.60;;
51664;SDS011;37751;52.408;12.536;2023-11-21T09:26:23;9.33;;;5.97;;
51664;SDS011;37751;52.408;12.536;2023-11-21T09:28:58;11.33;;;6.40;;
51664;SDS011;37751;52.408;12.536;2023-11-21T09:32:10;7.17;;;4.97;;
51664;SDS011;37751;52.408;12.536;2023-11-21T09:34:53;11.87;;;6.73;;
51664;SDS011;37751;52.408;12.536;2023-11-21T09:37:30;6.30;;;4.87;;
51664;SDS011;37751;52.408;12.536;2023-11-21T09:40:13;10.27;;;6.40;;
51664;SDS011;37751;52.408;12.536;2023-11-21T09:43:25;9.23;;;5.70;;
51664;SDS011;37751;52.408;12.536;2023-11-21T09:46:04;12.30;;;5.70;;
51664;SDS011;37751;52.408;12.536;2023-11-21T09:49:00;8.33;;;5.53;;
51664;SDS011;37751;52.408;12.536;2023-11-21T09:51:42;9.20;;;5.00;;
51664;SDS011;37751;52.408;12.536;2023-11-21T09:54:38;5.30;;;4.00;;
51664;SDS011;37751;52.408;12.536;2023-11-21T09:57:12;7.00;;;4.97;;
51664;SDS011;37751;52.408;12.536;2023-11-21T10:00:10;6.73;;;4.77;;
51664;SDS011;37751;52.408;12.536;2023-11-21T10:02:57;6.77;;;4.63;;
51664;SDS011;37751;52.408;12.536;2023-11-21T10:05:33;7.43;;;5.03;;
51664;SDS011;37751;52.408;12.536;2023-11-21T10:08:28;9.60;;;3.97;;
51664;SDS011;37751;52.408;12.536;2023-11-21T10:11:56;6.00;;;4.20;;
51664;SDS011;37751;52.408;12.536;2023-11-21T10:14:53;9.77;;;5.90;;
51664;SDS011;37751;52.408;12.536;2023-11-21T10:17:36;9.80;;;5.03;;
51664;SDS011;37751;52.408;12.536;2023-11-21T10:20:52;8.10;;;4.60;;
51664;SDS011;37751;52.408;12.536;2023-11-21T10:23:41;7.23;;;4.83;;
51664;SDS011;37751;52.408;12.536;2023-11-21T10:26:22;6.60;;;4.70;;
51664;SDS011;37751;52.408;12.536;2023-11-21T10:29:21;10.03;;;4.87;;
51664;SDS011;37751;52.408;12.536;2023-11-21T10:32:15;6.90;;;4.90;;
51664;SDS011;37751;52.408;12.536;2023-11-21T10:34:55;8.17;;;4.40;;
51664;SDS011;37751;52.408;12.536;2023-11-21T10:37:30;7.50;;;4.73;;
51664;SDS011;37751;52.408;12.536;2023-11-21T10:40:27;8.50;;;5.13;;
51664;SDS011;37751;52.408;12.536;2023-11-21T10:43:29;8.33;;;4.33;;
51664;SDS011;37751;52.408;12.536;2023-11-21T10:46:22;9.33;;;4.63;;
51664;SDS011;37751;52.408;12.536;2023-11-21T10:49:17;9.43;;;5.07;;
51664;SDS011;37751;52.408;12.536;2023-11-21T10:51:52;8.53;;;4.87;;
51664;SDS011;37751;52.408;12.536;2023-11-21T10:54:27;8.33;;;5.33;;
51664;SDS011;37751;52.408;12.536;2023-11-21T10:57:05;16.67;;;10.20;;
51664;SDS011;37751;52.408;12.536;2023-11-21T10:59:48;12.27;;;7.67;;
51664;SDS011;37751;52.408;12.536;2023-11-21T11:02:41;9.80;;;7.00;;
51664;SDS011;37751;52.408;12.536;2023-11-21T11:05:24;10.80;;;7.33;;
51664;SDS011;37751;52.408;12.536;2023-11-21T11:08:21;8.50;;;6.10;;
51664;SDS011;37751;52.408;12.536;2023-11-21T11:11:18;7.63;;;5.30;;
51664;SDS011;37751;52.408;12.536;2023-11-21T11:13:52;8.10;;;5.47;;
51664;SDS011;37751;52.408;12.536;2023-11-21T11:16:47;10.23;;;5.27;;
51664;SDS011;37751;52.408;12.536;2023-11-21T11:19:42;8.23;;;5.23;;
51664;SDS011;37751;52.408;12.536;2023-11-21T11:22:35;15.10;;;5.63;;
51664;SDS011;37751;52.408;12.536;2023-11-21T11:25:17;10.97;;;6.00;;
51664;SDS011;37751;52.408;12.536;2023-11-21T11:28:27;10.03;;;6.90;;
51664;SDS011;37751;52.408;12.536;2023-11-21T11:31:14;10.47;;;6.73;;
51664;SDS011;37751;52.408;12.536;2023-11-21T11:33:59;10.90;;;6.97;;
51664;SDS011;37751;52.408;12.536;2023-11-21T11:36:43;11.43;;;7.07;;
51664;SDS011;37751;52.408;12.536;2023-11-21T11:39:28;9.57;;;6.70;;
51664;SDS011;37751;52.408;12.536;2023-11-21T11:42:51;9.90;;;6.43;;
51664;SDS011;37751;52.408;12.536;2023-11-21T11:45:33;8.70;;;6.67;;
51664;SDS011;37751;52.408;12.536;2023-11-21T11:48:13;10.17;;;6.87;;
51664;SDS011;37751;52.408;12.536;2023-11-21T11:51:13;12.13;;;7.27;;
51664;SDS011;37751;52.408;12.536;2023-11-21T11:53:47;12.97;;;6.87;;
51664;SDS011;37751;52.408;12.536;2023-11-21T11:56:23;11.83;;;7.30;;
51664;SDS011;37751;52.408;12.536;2023-11-21T11:58:59;8.77;;;6.67;;
51664;SDS011;37751;52.408;12.536;2023-11-21T12:01:58;11.53;;;7.33;;
51664;SDS011;37751;52.408;12.536;2023-11-21T12:04:43;10.10;;;7.03;;
51664;SDS011;37751;52.408;12.536;2023-11-21T12:07:18;10.50;;;7.57;;
51664;SDS011;37751;52.408;12.536;2023-11-21T12:09:53;11.77;;;7.80;;
51664;SDS011;37751;52.408;12.536;2023-11-21T12:12:31;11.10;;;7.80;;
51664;SDS011;37751;52.408;12.536;2023-11-21T12:15:26;11.27;;;7.47;;
51664;SDS011;37751;52.408;12.536;2023-11-21T12:18:19;10.50;;;7.30;;
51664;SDS011;37751;52.408;12.536;2023-11-21T12:20:56;10.83;;;6.70;;
51664;SDS011;37751;52.408;12.536;2023-11-21T12:23:31;10.07;;;6.60;;
51664;SDS011;37751;52.408;12.536;2023-11-21T12:26:03;10.20;;;6.20;;
51664;SDS011;37751;52.408;12.536;2023-11-21T12:28:51;6.50;;;4.67;;
51664;SDS011;37751;52.408;12.536;2023-11-21T12:31:45;9.33;;;5.73;;
51664;SDS011;37751;52.408;12.536;2023-11-21T12:34:26;10.97;;;6.13;;
51664;SDS011;37751;52.408;12.536;2023-11-21T12:37:33;11.43;;;6.03;;
51664;SDS011;37751;52.408;12.536;2023-11-21T12:40:45;8.97;;;5.70;;
51664;SDS011;37751;52.408;12.536;2023-11-21T12:43:17;7.97;;;5.50;;
51664;SDS011;37751;52.408;12.536;2023-11-21T12:45:50;8.43;;;5.23;;
51664;SDS011;37751;52.408;12.536;2023-11-21T12:48:55;9.00;;;4.97;;
51664;SDS011;37751;52.408;12.536;2023-11-21T12:51:50;11.00;;;5.77;;
51664;SDS011;37751;52.408;12.536;2023-11-21T12:54:25;8.03;;;4.90;;
51664;SDS011;37751;52.408;12.536;2023-11-21T12:57:17;6.23;;;4.40;;
51664;SDS011;37751;52.408;12.536;2023-11-21T13:00:03;5.23;;;4.00;;
51664;SDS011;37751;52.408;12.536;2023-11-21T13:03:22;7.60;;;4.90;;
51664;SDS011;37751;52.408;12.536;2023-11-21T13:06:24;7.63;;;4.73;;
51664;SDS011;37751;52.408;12.536;2023-11-21T13:09:21;8.20;;;5.63;;
51664;SDS011;37751;52.408;12.536;2023-11-21T13:11:59;8.27;;;4.63;;
51664;SDS011;37751;52.408;12.536;2023-11-21T13:14:40;6.80;;;4.87;;
51664;SDS011;37751;52.408;12.536;2023-11-21T13:17:34;8.90;;;5.23;;
51664;SDS011;37751;52.408;12.536;2023-11-21T13:20:12;8.10;;;4.83;;
51664;SDS011;37751;52.408;12.536;2023-11-21T13:23:09;6.33;;;4.80;;
51664;SDS011;37751;52.408;12.536;2023-11-21T13:26:09;7.40;;;4.70;;
51664;SDS011;37751;52.408;12.536;2023-11-21T13:28:48;8.50;;;4.87;;
51664;SDS011;37751;52.408;12.536;2023-11-21T13:31:21;7.60;;;4.87;;
51664;SDS011;37751;52.408;12.536;2023-11-21T13:33:54;10.37;;;4.67;;
51664;SDS011;37751;52.408;12.536;2023-11-21T13:36:38;7.67;;;5.40;;
51664;SDS011;37751;52.408;12.536;2023-11-21T13:39:15;7.73;;;4.90;;
51664;SDS011;37751;52.408;12.536;2023-11-21T13:42:21;7.10;;;4.43;;
51664;SDS011;37751;52.408;12.536;2023-11-21T13:44:56;6.33;;;4.67;;
51664;SDS011;37751;52.408;12.536;2023-11-21T13:47:29;6.97;;;5.07;;
51664;SDS011;37751;52.408;12.536;2023-11-21T13:50:01;9.30;;;5.00;;
51664;SDS011;37751;52.408;12.536;2023-11-21T13:52:47;7.07;;;4.73;;
51664;SDS011;37751;52.408;12.536;2023-11-21T13:55:21;6.50;;;4.57;;
51664;SDS011;37751;52.408;12.536;2023-11-21T13:58:19;13.27;;;7.33;;
51664;SDS011;37751;52.408;12.536;2023-11-21T14:01:05;8.03;;;4.97;;
51664;SDS011;37751;52.408;12.536;2023-11-21T14:03:52;7.23;;;4.50;;
51664;SDS011;37751;52.408;12.536;2023-11-21T14:06:29;6.50;;;4.30;;
51664;SDS011;37751;52.408;12.536;2023-11-21T14:09:25;6.90;;;4.43;;
51664;SDS011;37751;52.408;12.536;2023-11-21T14:12:04;6.67;;;4.10;;
51664;SDS011;37751;52.408;12.536;2023-11-21T14:14:46;9.00;;;4.77;;
51664;SDS011;37751;52.408;12.536;2023-11-21T14:17:37;7.33;;;4.37;;
51664;SDS011;37751;52.408;12.536;2023-11-21T14:20:16;6.27;;;4.53;;
51664;SDS011;37751;52.408;12.536;2023-11-21T14:22:49;7.17;;;3.90;;
51664;SDS011;37751;52.408;12.536;2023-11-21T14:25:26;5.13;;;3.67;;
51664;SDS011;37751;52.408;12.536;2023-11-21T14:28:28;6.53;;;4.43;;
51664;SDS011;37751;52.408;12.536;2023-11-21T14:31:14;6.00;;;4.10;;
51664;SDS011;37751;52.408;12.536;2023-11-21T14:33:50;6.07;;;4.10;;
51664;SDS011;37751;52.408;12.536;2023-11-21T14:36:22;6.17;;;3.87;;
51664;SDS011;37751;52.408;12.536;2023-11-21T14:38:59;6.40;;;3.70;;
51664;SDS011;37751;52.408;12.536;2023-11-21T14:41:37;6.40;;;4.53;;
51664;SDS011;37751;52.408;12.536;2023-11-21T14:44:25;9.67;;;5.67;;
51664;SDS011;37751;52.408;12.536;2023-11-21T14:47:09;7.53;;;4.23;;
51664;SDS011;37751;52.408;12.536;2023-11-21T14:50:03;7.30;;;4.23;;
51664;SDS011;37751;52.408;12.536;2023-11-21T14:53:26;6.17;;;4.33;;
51664;SDS011;37751;52.408;12.536;2023-11-21T14:56:24;5.60;;;4.13;;
51664;SDS011;37751;52.408;12.536;2023-11-21T14:59:13;6.63;;;3.63;;
51664;SDS011;37751;52.408;12.536;2023-11-21T15:01:57;5.67;;;4.07;;
51664;SDS011;37751;52.408;12.536;2023-11-21T15:05:14;6.33;;;4.13;;
51664;SDS011;37751;52.408;12.536;2023-11-21T15:07:50;6.97;;;4.10;;
51664;SDS011;37751;52.408;12.536;2023-11-21T15:10:27;6.37;;;4.23;;
51664;SDS011;37751;52.408;12.536;2023-11-21T15:13:19;6.53;;;4.47;;
51664;SDS011;37751;52.408;12.536;2023-11-21T15:16:13;6.00;;;4.47;;
51664;SDS011;37751;52.408;12.536;2023-11-21T15:18:45;5.17;;;3.80;;
51664;SDS011;37751;52.408;12.536;2023-11-21T15:21:24;6.20;;;4.27;;
51664;SDS011;37751;52.408;12.536;2023-11-21T15:24:08;5.37;;;3.80;;
51664;SDS011;37751;52.408;12.536;2023-11-21T15:26:40;7.23;;;4.73;;
51664;SDS011;37751;52.408;12.536;2023-11-21T15:29:30;5.47;;;4.17;;
51664;SDS011;37751;52.408;12.536;2023-11-21T15:32:11;6.33;;;4.10;;
51664;SDS011;37751;52.408;12.536;2023-11-21T15:35:07;6.07;;;4.17;;
51664;SDS011;37751;52.408;12.536;2023-11-21T15:37:53;5.53;;;3.90;;
51664;SDS011;37751;52.408;12.536;2023-11-21T15:40:38;6.07;;;4.07;;
51664;SDS011;37751;52.408;12.536;2023-11-21T15:43:31;6.20;;;3.53;;
51664;SDS011;37751;52.408;12.536;2023-11-21T15:46:03;6.40;;;4.33;;